Time;durP1;ratioP1;P1;durP2;ratioP2;P2;SDS_P1;SDS_P2;PMS_P1;PMS_P2;Temp;Humidity;BMP_temperature;BMP_pressure;BME280_temperature;BME280_humidity;BME280_pressure;Samples;Min_cycle;Max_cycle;Signal;HPM_P1;HPM_P2
2023/02/28 00:01:27;;;;;;;;;;;;;;;;;;5112906;28;20018;-96
2023/02/28 00:03:53;;;;;;;;;;;;;;;;;;5130045;28;19920;-96
2023/02/28 00:06:25;;;;;;;;;;;;;;;;;;5113019;28;19926;-95
2023/02/28 00:08:53;;;;;;;;;;;;;;;;;;5129563;28;20010;-96
2023/02/28 00:11:27;;;;;;;;;;;;;;;;;;5113196;28;19924;-96
2023/02/28 00:14:05;;;;;;;;;;;;;;;;;;5130058;28;19958;-96
2023/02/28 00:16:31;;;;;;;;;;;;;;;;;;5112486;28;19920;-95
2023/02/28 00:19:04;;;;;;;;;;;;;;;;;;5114565;28;19920;-96
2023/02/28 00:21:40;;;;;;;;;;;;;;;;;;5117555;28;19920;-96
2023/02/28 00:24:22;;;;;;;;;;;;;;;;;;5116798;28;19920;-96
2023/02/28 00:27:11;;;;;;;;;;;;;;;;;;5138826;27;20012;-96
2023/02/28 00:32:47;;;;;;;;;;;;;;;;;;5133742;28;19918;-96
2023/02/28 00:35:30;;;;;;;;;;;;;;;;;;5132866;27;19923;-96
2023/02/28 00:38:20;;;;;;;;;;;;;;;;;;;;;
2023/02/28 00:41:04;;;;;;;;;;;;;;;;;;5121446;28;19923;-96
2023/02/28 00:43:42;;;;;;;;;;;;;;;;;;5115789;28;19946;-95
2023/02/28 00:46:13;;;;;;;;;;;;;;;;;;5114859;28;20019;-95
2023/02/28 00:48:43;;;;;;;;;;;;;;;;;;5116851;28;20019;-95
2023/02/28 00:51:09;;;;;;;;;;;;;;;;;;5099039;28;20018;-95
2023/02/28 00:53:38;;;;;;;;;;;;;;;;;;5098897;28;20372;-95
2023/02/28 00:56:06;;;;;;;;;;;;;;;;;;5116835;27;19919;-96
2023/02/28 00:58:32;;;;;;;;;;;;;;;;;;5098174;28;19949;-95
2023/02/28 01:01:04;;;;;;;;;;;;;;;;;;5098346;28;19923;-95
2023/02/28 01:03:30;;;;;;;;;;;;;;;;;;5097854;28;19927;-96
2023/02/28 01:05:56;;;;;;;;;;;;;;;;;;5115169;28;19919;-96
2023/02/28 01:08:22;;;;;;;;;;;;;;;;;;5115230;28;20398;-95
2023/02/28 01:10:54;;;;;;;;;;;;;;;;;;5115238;28;19931;-95
2023/02/28 01:13:26;;;;;;;;;;;;;;;;;;5115279;28;19945;-95
2023/02/28 01:16:04;;;;;;;;;;;;;;;;;;5098085;28;19923;-95
2023/02/28 01:18:42;;;;;;;;;;;;;;;;;;5116194;28;19920;-95
2023/02/28 01:21:12;;;;;;;;;;;;;;;;;;5114995;28;20288;-96
2023/02/28 01:23:41;;;;;;;;;;;;;;;;;;5098197;28;20014;-96
2023/02/28 01:26:06;;;;;;;;;;;;;;;;;;5115215;28;19962;-96
2023/02/28 01:31:59;;;;;;;;;;;;;;;;;;;;;
2023/02/28 02:30:49;;;;;;;;;;;;;;;;;;5794397;22;19964;-96
2023/02/28 02:33:15;;;;;;;;;;;;;;;;;;5033673;28;19925;-96
2023/02/28 02:35:44;;;;;;;;;;;;;;;;;;5017344;28;19921;-96
2023/02/28 02:38:09;;;;;;;;;;;;;;;;;;5016738;28;19928;-96
2023/02/28 02:40:37;;;;;;;;;;;;;;;;;;5016652;28;19964;-96
2023/02/28 02:43:09;;;;;;;;;;;;;;;;;;5017382;28;19928;-96
2023/02/28 02:45:36;;;;;;;;;;;;;;;;;;5033619;28;19948;-96
2023/02/28 02:48:22;;;;;;;;;;;;;;;;;;5034017;28;20388;-94
2023/02/28 02:50:53;;;;;;;;;;;;;;;;;;5035854;28;19921;-96
2023/02/28 02:53:43;;;;;;;;;;;;;;;;;;5033381;28;20004;-96
2023/02/28 02:56:11;;;;;;;;;;;;;;;;;;5034332;28;19921;-95
2023/02/28 02:58:41;;;;;;;;;;;;;;;;;;5033670;28;19921;-96
2023/02/28 03:01:13;;;;;;;;;;;;;;;;;;5034349;28;20342;-96
2023/02/28 03:04:12;;;;;;;;;;;;;;;;;;5039008;28;19936;-95
2023/02/28 03:06:40;;;;;;;;;;;;;;;;;;5023099;28;19921;-96
2023/02/28 04:54:39;;;;;;;;;;;;;;;;;;5055889;28;19924;-96
2023/02/28 05:04:53;;;;;;;;;;;;;;;;;;6112640;22;20591;-95
2023/02/28 05:07:40;;;;;;;;;;;;;;;;;;5046281;28;20004;-96
2023/02/28 05:10:05;;;;;;;;;;;;;;;;;;5040728;28;19971;-95
2023/02/28 05:12:35;;;;;;;;;;;;;;;;;;5043241;28;19944;-96
2023/02/28 05:15:49;;;;;;;;;;;;;;;;;;5047519;28;19922;-93
2023/02/28 05:18:22;;;;;;;;;;;;;;;;;;5018901;28;20019;-94
2023/02/28 05:39:18;;;;;;;;;;;;;;;;;;5128253;22;19925;-95
2023/02/28 05:42:04;;;;;;;;;;;;;;;;;;5042304;28;19916;-94
2023/02/28 05:44:39;;;;;;;;;;;;;;;;;;5041292;28;19913;-93
2023/02/28 05:47:17;;;;;;;;;;;;;;;;;;5057511;28;19929;-92
2023/02/28 05:50:09;;;;;;;;;;;;;;;;;;5045622;28;19925;-95
2023/02/28 05:52:39;;;;;;;;;;;;;;;;;;5023481;28;19931;-96
2023/02/28 05:55:08;;;;;;;;;;;;;;;;;;5057823;28;19921;-93
2023/02/28 05:57:37;;;;;;;;;;;;;;;;;;5039845;28;19951;-93
2023/02/28 06:00:11;;;;;;;;;;;;;;;;;;5037935;28;19925;-95
2023/02/28 06:06:04;;;;;;;;;;;;;;;;;;5055524;28;19924;-96
2023/02/28 06:08:35;;;;;;;;;;;;;;;;;;5051598;28;19963;-96
2023/02/28 06:11:20;;;;;;;;;;;;;;;;;;5053165;28;19924;-94
2023/02/28 06:14:00;;;;;;;;;;;;;;;;;;5046314;28;19921;-96
2023/02/28 06:55:30;;;;;;;;;;;;;;;;;;6077067;22;21001;-96
2023/02/28 06:57:59;;;;;;;;;;;;;;;;;;5024767;28;20343;-92
2023/02/28 07:58:38;;;;;;;;;;;;;;;;;;5884355;22;20099;-94
2023/02/28 09:00:22;;;;;;;;;;;;;;;;;;5406907;22;19965;-96
2023/02/28 09:02:57;;;;;;;;;;;;;;;;;;5025529;28;19921;-96
2023/02/28 09:13:49;;;;;;;;;;;;;;;;;;5809172;22;20003;-95
2023/02/28 09:16:16;;;;;;;;;;;;;;;;;;5018484;28;19921;-96
2023/02/28 09:18:57;;;;;;;;;;;;;;;;;;5034515;28;19928;-96
2023/02/28 09:21:25;;;;;;;;;;;;;;;;;;5035344;28;19921;-96
2023/02/28 09:26:28;;;;;;;;;;;;;;;;;;5556269;22;19925;-96
2023/02/28 09:28:58;;;;;;;;;;;;;;;;;;5034608;28;19991;-95
2023/02/28 09:31:28;;;;;;;;;;;;;;;;;;5051124;28;20016;-95
2023/02/28 09:33:54;;;;;;;;;;;;;;;;;;5050380;28;19921;-95
2023/02/28 09:36:26;;;;;;;;;;;;;;;;;;5021324;28;19922;-96
2023/02/28 09:46:40;;;;;;;;;;;;;;;;;;5052991;28;19924;-94
2023/02/28 09:49:06;;;;;;;;;;;;;;;;;;5054899;28;19932;-96
2023/02/28 09:51:32;;;;;;;;;;;;;;;;;;5058935;28;19921;-96
2023/02/28 09:53:58;;;;;;;;;;;;;;;;;;5056411;28;19925;-95
2023/02/28 09:56:27;;;;;;;;;;;;;;;;;;5054141;28;19924;-95
2023/02/28 09:58:55;;;;;;;;;;;;;;;;;;5042079;28;19921;-96
2023/02/28 10:07:04;;;;;;;;;;;;;;;;;;5063759;28;19908;-96
2023/02/28 10:09:44;;;;;;;;;;;;;;;;;;5056908;28;19925;-96
2023/02/28 10:12:19;;;;;;;;;;;;;;;;;;5042100;28;20320;-96
2023/02/28 11:12:11;;;;;;;;;;;;;;;;;;5333896;22;19996;-94
2023/02/28 11:28:16;;;;;;;;;;;;;;;;;;6148726;22;19915;-93
2023/02/28 11:57:13;;;;;;;;;;;;;;;;;;5812158;22;19976;-96
2023/02/28 12:20:35;;;;;;;;;;;;;;;;;;6036868;22;19952;-94
2023/02/28 12:23:01;;;;;;;;;;;;;;;;;;5322340;22;19952;-96
2023/02/28 12:28:31;;;;;;;;;;;;;;;;;;5036727;28;20373;-96
2023/02/28 12:31:13;;;;;;;;;;;;;;;;;;5042331;28;19925;-96
2023/02/28 12:33:41;;;;;;;;;;;;;;;;;;5039172;28;19932;-95
2023/02/28 12:36:52;;;;;;;;;;;;;;;;;;5756344;22;19932;-93
2023/02/28 12:39:23;;;;;;;;;;;;;;;;;;5036193;28;20027;-94
2023/02/28 12:50:29;;;;;;;;;;;;;;;;;;5926121;22;20020;-95
2023/02/28 12:52:59;;;;;;;;;;;;;;;;;;5036354;28;19925;-94
2023/02/28 12:55:25;;;;;;;;;;;;;;;;;;5035205;28;19928;-94
2023/02/28 12:57:55;;;;;;;;;;;;;;;;;;5019112;28;19927;-94
2023/02/28 13:00:22;;;;;;;;;;;;;;;;;;5018375;28;19975;-94
2023/02/28 13:02:48;;;;;;;;;;;;;;;;;;5018487;28;19921;-94
2023/02/28 13:05:15;;;;;;;;;;;;;;;;;;5018447;28;19928;-95
2023/02/28 13:07:48;;;;;;;;;;;;;;;;;;5035989;28;20000;-95
2023/02/28 13:10:25;;;;;;;;;;;;;;;;;;5038723;28;19925;-95
2023/02/28 13:12:51;;;;;;;;;;;;;;;;;;5021100;28;19921;-94
2023/02/28 13:15:18;;;;;;;;;;;;;;;;;;5018591;28;20370;-95
2023/02/28 13:17:44;;;;;;;;;;;;;;;;;;5035170;28;19921;-92
2023/02/28 13:20:13;;;;;;;;;;;;;;;;;;5025067;28;19974;-94
2023/02/28 13:22:52;;;;;;;;;;;;;;;;;;5018561;28;20019;-94
2023/02/28 14:03:03;;;;;;;;;;;;;;;;;;5208663;22;19925;-94
2023/02/28 14:05:29;;;;;;;;;;;;;;;;;;5021968;28;19924;-94
2023/02/28 14:07:55;;;;;;;;;;;;;;;;;;5033333;28;19921;-95
2023/02/28 14:10:21;;;;;;;;;;;;;;;;;;5017135;28;20023;-92
2023/02/28 14:12:49;;;;;;;;;;;;;;;;;;5018182;28;20000;-94
2023/02/28 14:15:15;;;;;;;;;;;;;;;;;;5016540;28;19996;-94
2023/02/28 14:17:44;;;;;;;;;;;;;;;;;;5033604;28;19921;-93
2023/02/28 14:20:17;;;;;;;;;;;;;;;;;;5034350;28;19925;-95
2023/02/28 14:22:43;;;;;;;;;;;;;;;;;;5033769;28;20412;-95
2023/02/28 14:25:10;;;;;;;;;;;;;;;;;;5017314;28;19971;-92
2023/02/28 14:27:37;;;;;;;;;;;;;;;;;;5117120;22;20063;-94
2023/02/28 14:30:06;;;;;;;;;;;;;;;;;;5033725;28;19925;-93
2023/02/28 14:32:40;;;;;;;;;;;;;;;;;;5036362;28;19928;-96
2023/02/28 14:35:05;;;;;;;;;;;;;;;;;;5034246;28;20374;-94
2023/02/28 14:37:33;;;;;;;;;;;;;;;;;;5034012;28;20314;-93
2023/02/28 14:39:59;;;;;;;;;;;;;;;;;;5033208;28;19929;-94
2023/02/28 14:42:26;;;;;;;;;;;;;;;;;;5033980;28;20023;-94
2023/02/28 14:45:00;;;;;;;;;;;;;;;;;;5017161;28;19983;-95
2023/02/28 14:47:28;;;;;;;;;;;;;;;;;;5018269;28;20020;-96
2023/02/28 14:49:56;;;;;;;;;;;;;;;;;;5033626;28;19929;-95
2023/02/28 14:52:22;;;;;;;;;;;;;;;;;;5033447;28;19944;-94
2023/02/28 14:54:51;;;;;;;;;;;;;;;;;;5032598;28;20382;-96
2023/02/28 14:57:20;;;;;;;;;;;;;;;;;;5016827;28;19922;-95
2023/02/28 14:59:46;;;;;;;;;;;;;;;;;;5032678;28;19929;-96
2023/02/28 15:02:12;;;;;;;;;;;;;;;;;;5333611;22;19925;-96
2023/02/28 15:04:38;;;;;;;;;;;;;;;;;;5005874;28;19921;-96
2023/02/28 15:07:04;;;;;;;;;;;;;;;;;;4993042;28;19929;-95
2023/02/28 15:09:33;;;;;;;;;;;;;;;;;;4992926;28;19925;-96
2023/02/28 15:12:00;;;;;;;;;;;;;;;;;;4976198;28;19922;-95
2023/02/28 15:14:29;;;;;;;;;;;;;;;;;;4976873;28;19922;-95
2023/02/28 15:16:55;;;;;;;;;;;;;;;;;;4976673;28;19926;-95
2023/02/28 15:19:21;;;;;;;;;;;;;;;;;;4977353;28;19922;-96
2023/02/28 15:24:50;;;;;;;;;;;;;;;;;;5008682;28;19961;-94
2023/02/28 15:30:04;;;;;;;;;;;;;;;;;;5959262;22;19913;-95
2023/02/28 15:35:09;;;;;;;;;;;;;;;;;;5388222;22;19925;-96
2023/02/28 15:37:38;;;;;;;;;;;;;;;;;;5033186;28;19925;-94
2023/02/28 15:40:23;;;;;;;;;;;;;;;;;;;;;
2023/02/28 15:42:56;;;;;;;;;;;;;;;;;;5038655;28;19921;-94
2023/02/28 15:45:25;;;;;;;;;;;;;;;;;;5015938;28;19967;-94
2023/02/28 15:47:51;;;;;;;;;;;;;;;;;;5032082;28;19921;-95
2023/02/28 15:50:19;;;;;;;;;;;;;;;;;;5015963;28;19925;-94
2023/02/28 15:52:45;;;;;;;;;;;;;;;;;;5015526;28;19971;-94
2023/02/28 15:55:12;;;;;;;;;;;;;;;;;;5015603;28;19975;-94
2023/02/28 15:57:41;;;;;;;;;;;;;;;;;;5015612;28;19970;-95
2023/02/28 16:00:07;;;;;;;;;;;;;;;;;;5015734;28;19921;-95
2023/02/28 16:02:33;;;;;;;;;;;;;;;;;;5016139;28;19922;-95
2023/02/28 16:04:59;;;;;;;;;;;;;;;;;;5032071;28;20075;-94
2023/02/28 16:07:25;;;;;;;;;;;;;;;;;;5031401;28;19974;-95
2023/02/28 16:09:54;;;;;;;;;;;;;;;;;;5015833;28;20409;-96
2023/02/28 16:12:20;;;;;;;;;;;;;;;;;;5017389;28;19929;-94
2023/02/28 16:14:46;;;;;;;;;;;;;;;;;;5020624;28;19929;-93
2023/02/28 16:17:12;;;;;;;;;;;;;;;;;;5020086;28;20369;-95
2023/02/28 16:19:37;;;;;;;;;;;;;;;;;;5019922;28;20296;-93
2023/02/28 16:22:03;;;;;;;;;;;;;;;;;;5021667;28;19971;-93
2023/02/28 16:24:36;;;;;;;;;;;;;;;;;;5021558;28;19921;-95
2023/02/28 16:27:07;;;;;;;;;;;;;;;;;;5043619;28;19951;-96
2023/02/28 16:34:50;;;;;;;;;;;;;;;;;;5668083;22;19979;-94
2023/02/28 16:37:16;;;;;;;;;;;;;;;;;;5020563;28;19938;-94
2023/02/28 16:39:44;;;;;;;;;;;;;;;;;;5018368;28;19925;-94
2023/02/28 16:42:10;;;;;;;;;;;;;;;;;;5018506;28;20407;-94
2023/02/28 16:44:37;;;;;;;;;;;;;;;;;;5034949;28;19921;-94
2023/02/28 16:47:03;;;;;;;;;;;;;;;;;;5019920;28;20312;-95
2023/02/28 16:49:29;;;;;;;;;;;;;;;;;;5017838;28;19925;-94
2023/02/28 16:51:55;;;;;;;;;;;;;;;;;;5017935;28;19948;-94
2023/02/28 16:54:21;;;;;;;;;;;;;;;;;;5018189;28;19925;-93
2023/02/28 16:56:47;;;;;;;;;;;;;;;;;;5034442;28;19928;-95
2023/02/28 16:59:23;;;;;;;;;;;;;;;;;;5041529;28;19921;-96
2023/02/28 17:01:52;;;;;;;;;;;;;;;;;;5035087;28;19948;-94
2023/02/28 17:04:27;;;;;;;;;;;;;;;;;;5035029;28;19921;-96
2023/02/28 17:06:55;;;;;;;;;;;;;;;;;;5035480;28;19921;-95
2023/02/28 17:09:28;;;;;;;;;;;;;;;;;;5034474;28;20023;-95
2023/02/28 17:12:11;;;;;;;;;;;;;;;;;;5035902;28;19925;-94
2023/02/28 17:14:40;;;;;;;;;;;;;;;;;;5032342;28;19921;-93
2023/02/28 17:17:06;;;;;;;;;;;;;;;;;;5033784;28;19971;-90
2023/02/28 17:19:33;;;;;;;;;;;;;;;;;;5033433;28;19925;-91
2023/02/28 17:21:59;;;;;;;;;;;;;;;;;;5033690;28;19964;-91
2023/02/28 17:24:25;;;;;;;;;;;;;;;;;;5017033;28;19921;-90
2023/02/28 17:26:51;;;;;;;;;;;;;;;;;;5016992;28;20293;-90
2023/02/28 17:29:17;;;;;;;;;;;;;;;;;;5033542;28;20366;-93
2023/02/28 17:31:43;;;;;;;;;;;;;;;;;;5016700;28;19921;-90
2023/02/28 17:34:09;;;;;;;;;;;;;;;;;;5016598;28;19921;-89
2023/02/28 17:36:36;;;;;;;;;;;;;;;;;;5032569;28;19978;-90
2023/02/28 17:39:02;;;;;;;;;;;;;;;;;;5034451;28;19925;-89
2023/02/28 17:41:30;;;;;;;;;;;;;;;;;;5035625;28;20009;-89
2023/02/28 17:43:56;;;;;;;;;;;;;;;;;;5034963;28;19979;-89
2023/02/28 17:46:25;;;;;;;;;;;;;;;;;;5034092;28;19925;-90
2023/02/28 17:48:53;;;;;;;;;;;;;;;;;;5021356;28;19921;-91
2023/02/28 17:51:19;;;;;;;;;;;;;;;;;;5029977;28;19921;-91
2023/02/28 17:53:45;;;;;;;;;;;;;;;;;;5036655;28;19975;-92
2023/02/28 17:56:11;;;;;;;;;;;;;;;;;;5058909;28;20184;-94
2023/02/28 17:58:41;;;;;;;;;;;;;;;;;;5049848;28;19921;-92
2023/02/28 18:01:07;;;;;;;;;;;;;;;;;;5050160;28;19927;-93
2023/02/28 18:03:34;;;;;;;;;;;;;;;;;;5032981;28;20385;-93
2023/02/28 18:06:03;;;;;;;;;;;;;;;;;;5049958;28;19921;-93
2023/02/28 18:08:29;;;;;;;;;;;;;;;;;;5033032;28;20428;-92
2023/02/28 18:10:55;;;;;;;;;;;;;;;;;;5049299;28;20012;-91
2023/02/28 18:13:21;;;;;;;;;;;;;;;;;;5049270;28;20432;-91
2023/02/28 18:15:47;;;;;;;;;;;;;;;;;;5049592;28;19967;-93
2023/02/28 18:18:15;;;;;;;;;;;;;;;;;;5032881;28;19975;-92
2023/02/28 18:20:41;;;;;;;;;;;;;;;;;;5049748;28;20255;-92
2023/02/28 18:23:07;;;;;;;;;;;;;;;;;;5049380;28;20020;-92
2023/02/28 18:25:37;;;;;;;;;;;;;;;;;;5032803;28;19921;-92
2023/02/28 18:28:04;;;;;;;;;;;;;;;;;;5049697;28;20389;-92
2023/02/28 18:30:30;;;;;;;;;;;;;;;;;;5049506;28;20097;-93
2023/02/28 18:32:56;;;;;;;;;;;;;;;;;;5033062;28;20052;-93
2023/02/28 18:35:34;;;;;;;;;;;;;;;;;;5048246;28;19955;-93
2023/02/28 18:38:03;;;;;;;;;;;;;;;;;;5049831;28;19984;-93
2023/02/28 18:40:29;;;;;;;;;;;;;;;;;;5034086;28;19920;-96
2023/02/28 18:42:58;;;;;;;;;;;;;;;;;;5032843;28;19922;-94
2023/02/28 18:45:27;;;;;;;;;;;;;;;;;;5032360;28;19928;-95
2023/02/28 18:47:54;;;;;;;;;;;;;;;;;;5032997;28;19921;-93
2023/02/28 18:50:20;;;;;;;;;;;;;;;;;;5032989;28;19931;-95
2023/02/28 18:52:46;;;;;;;;;;;;;;;;;;5032992;28;19921;-94
2023/02/28 18:55:17;;;;;;;;;;;;;;;;;;5032411;28;19955;-95
2023/02/28 18:57:46;;;;;;;;;;;;;;;;;;5032910;28;20023;-95
2023/02/28 19:00:14;;;;;;;;;;;;;;;;;;5032851;28;19921;-94
2023/02/28 19:02:43;;;;;;;;;;;;;;;;;;5032796;28;19922;-94
2023/02/28 19:05:14;;;;;;;;;;;;;;;;;;5047492;28;20365;-93
2023/02/28 19:07:42;;;;;;;;;;;;;;;;;;5049613;28;19928;-94
2023/02/28 19:10:26;;;;;;;;;;;;;;;;;;5034216;28;19932;-95
2023/02/28 19:13:04;;;;;;;;;;;;;;;;;;;;;
2023/02/28 19:15:41;;;;;;;;;;;;;;;;;;5034270;28;19925;-95
2023/02/28 19:18:07;;;;;;;;;;;;;;;;;;5032608;28;19929;-95
2023/02/28 19:20:33;;;;;;;;;;;;;;;;;;5033150;28;20016;-96
2023/02/28 19:23:02;;;;;;;;;;;;;;;;;;5037102;28;20332;-95
2023/02/28 19:26:15;;;;;;;;;;;;;;;;;;6130172;22;20749;-93
2023/02/28 19:29:06;;;;;;;;;;;;;;;;;;5031587;28;20293;-94
2023/02/28 19:31:33;;;;;;;;;;;;;;;;;;5005493;28;19922;-95
2023/02/28 19:34:22;;;;;;;;;;;;;;;;;;5013481;28;19921;-96
2023/02/28 19:37:14;;;;;;;;;;;;;;;;;;4992535;28;19985;-96
2023/02/28 19:40:01;;;;;;;;;;;;;;;;;;4992898;28;19981;-94
2023/02/28 19:42:31;;;;;;;;;;;;;;;;;;4992630;28;19922;-93
2023/02/28 19:45:19;;;;;;;;;;;;;;;;;;4994372;28;20019;-93
2023/02/28 19:48:17;;;;;;;;;;;;;;;;;;4998134;28;19976;-93
2023/02/28 19:50:47;;;;;;;;;;;;;;;;;;5012462;28;19926;-95
2023/02/28 19:53:13;;;;;;;;;;;;;;;;;;4998052;28;19930;-95
2023/02/28 19:55:39;;;;;;;;;;;;;;;;;;5013339;28;19948;-95
2023/02/28 19:58:13;;;;;;;;;;;;;;;;;;4996949;28;20049;-96
2023/02/28 20:01:06;;;;;;;;;;;;;;;;;;4996873;28;20204;-95
2023/02/28 20:03:36;;;;;;;;;;;;;;;;;;5012731;28;19929;-93
2023/02/28 20:06:02;;;;;;;;;;;;;;;;;;4996392;28;20378;-93
2023/02/28 20:08:31;;;;;;;;;;;;;;;;;;5011039;28;20398;-93
2023/02/28 20:10:57;;;;;;;;;;;;;;;;;;5012916;28;19926;-93
2023/02/28 20:13:23;;;;;;;;;;;;;;;;;;4996549;28;20004;-92
2023/02/28 20:15:49;;;;;;;;;;;;;;;;;;5012201;28;19952;-93
2023/02/28 20:18:15;;;;;;;;;;;;;;;;;;4995909;28;20345;-93
2023/02/28 20:20:44;;;;;;;;;;;;;;;;;;4996491;28;19929;-92
2023/02/28 20:23:13;;;;;;;;;;;;;;;;;;5011987;28;20101;-93
2023/02/28 20:25:39;;;;;;;;;;;;;;;;;;4995661;28;19976;-92
2023/02/28 20:28:05;;;;;;;;;;;;;;;;;;4995495;28;20259;-94
2023/02/28 20:30:31;;;;;;;;;;;;;;;;;;4995251;28;19925;-91
2023/02/28 20:33:00;;;;;;;;;;;;;;;;;;4995961;28;20044;-95
2023/02/28 20:35:30;;;;;;;;;;;;;;;;;;4995550;28;19928;-96
2023/02/28 20:56:12;;;;;;;;;;;;;;;;;;5573721;22;19932;-94
2023/02/28 21:16:55;;;;;;;;;;;;;;;;;;5128720;22;20013;-96
2023/02/28 21:19:21;;;;;;;;;;;;;;;;;;5018798;28;19921;-93
2023/02/28 21:24:42;;;;;;;;;;;;;;;;;;;;;
2023/02/28 21:32:53;;;;;;;;;;;;;;;;;;5088372;22;20052;-93
2023/02/28 21:35:20;;;;;;;;;;;;;;;;;;5050907;28;19921;-93
2023/02/28 21:37:51;;;;;;;;;;;;;;;;;;5072260;28;19999;-92
2023/02/28 21:40:17;;;;;;;;;;;;;;;;;;5064201;28;19928;-93
2023/02/28 21:42:42;;;;;;;;;;;;;;;;;;5041429;28;19943;-94
2023/02/28 21:45:08;;;;;;;;;;;;;;;;;;5050392;28;20254;-90
2023/02/28 21:50:21;;;;;;;;;;;;;;;;;;5027513;28;19948;-93
2023/02/28 21:52:47;;;;;;;;;;;;;;;;;;5021935;28;19974;-93
2023/02/28 21:55:13;;;;;;;;;;;;;;;;;;5037705;28;20315;-94
2023/02/28 21:57:42;;;;;;;;;;;;;;;;;;5021147;28;19920;-94
2023/02/28 22:00:24;;;;;;;;;;;;;;;;;;5060957;22;19932;-95
2023/02/28 22:02:51;;;;;;;;;;;;;;;;;;5020832;28;19920;-96
2023/02/28 22:05:31;;;;;;;;;;;;;;;;;;5036930;28;19920;-94
2023/02/28 22:13:34;;;;;;;;;;;;;;;;;;5083708;28;19920;-95
2023/02/28 22:16:00;;;;;;;;;;;;;;;;;;5059958;28;19921;-94
2023/02/28 22:22:21;;;;;;;;;;;;;;;;;;5675412;22;19931;-96
2023/02/28 22:24:47;;;;;;;;;;;;;;;;;;5045530;28;19921;-93
2023/02/28 22:27:13;;;;;;;;;;;;;;;;;;5078165;28;19951;-93
2023/02/28 22:29:39;;;;;;;;;;;;;;;;;;5062153;28;19935;-95
